Woodhaven, Michigan
Current Conditions -  °F | °C
As of 2:14 AM on Friday 31 Oct 2014 (Local Time) from KONZ Reporting Station
Overcast Overcast  
Wind Chill:   Ceiling: 4700
Heat Index:   Visibility: 10mi
Dew Point:   Wind: 6mph
Humidity: 71%   Direction: 220°SW
Pressure: 29.97"   Gusts: NA
Location:  42.14°N, 83.24°W
Report Text: KONZ 310614Z AUTO 22005KT 10SM BKN047 OVC055 08/03 A2997 RMK AO2
Loading
Personal Weather Stations






























Interactive Weather Map
Tropical Storm Tracking
New forecast layout! Learn more

10-Day Weather Forecast

Advertisements
Track Severe Weather on mobile